Time;durP1;ratioP1;P1;durP2;ratioP2;P2;SDS_P1;SDS_P2;PMS_P1;PMS_P2;Temp;Humidity;BMP_temperature;BMP_pressure;BME280_temperature;BME280_humidity;BME280_pressure;Samples;Min_cycle;Max_cycle;Signal;HPM_P1;HPM_P2
2022/06/07 00:00:44;;;;;;;;;;;18.50;99.90;;;;;;5042699;28;19951;-79
2022/06/07 00:03:11;;;;;;;;;;;18.40;99.90;;;;;;5039711;28;20019;-79
2022/06/07 00:05:40;;;;;;;;;;;18.50;99.90;;;;;;5027967;28;19936;-79
2022/06/07 00:08:07;;;;;;;;;;;18.40;99.90;;;;;;5046342;28;19943;-79
2022/06/07 00:10:34;;;;;;;;;;;18.40;99.90;;;;;;5025215;28;20615;-79
2022/06/07 00:13:01;;;;;;;;;;;18.40;99.90;;;;;;5041613;28;20074;-79
2022/06/07 00:15:28;;;;;;;;;;;18.40;99.90;;;;;;5044221;28;20323;-79
2022/06/07 00:17:55;;;;;;;;;;;18.40;99.90;;;;;;5042058;28;20398;-79
2022/06/07 00:20:22;;;;;;;;;;;18.30;99.90;;;;;;5029698;28;19932;-79
2022/06/07 00:22:51;;;;;;;;;;;18.30;99.90;;;;;;5045277;28;19925;-79
2022/06/07 00:25:18;;;;;;;;;;;18.30;99.90;;;;;;5044754;28;19924;-79
2022/06/07 00:27:45;;;;;;;;;;;18.30;99.90;;;;;;5044986;28;19929;-79
2022/06/07 00:30:13;;;;;;;;;;;18.30;99.90;;;;;;5022305;28;19929;-79
2022/06/07 00:32:40;;;;;;;;;;;18.30;99.90;;;;;;5039786;28;19951;-79
2022/06/07 00:35:08;;;;;;;;;;;18.20;99.90;;;;;;5026479;28;19928;-79
2022/06/07 00:37:35;;;;;;;;;;;18.20;99.90;;;;;;5026220;28;19933;-79
2022/06/07 00:40:06;;;;;;;;;;;18.20;99.90;;;;;;5046965;28;19932;-79
2022/06/07 00:42:34;;;;;;;;;;;18.20;99.90;;;;;;5044293;28;19931;-79
2022/06/07 00:45:01;;;;;;;;;;;18.20;99.90;;;;;;5048125;28;19924;-79
2022/06/07 00:47:29;;;;;;;;;;;18.20;99.90;;;;;;5028224;28;19931;-79
2022/06/07 00:49:58;;;;;;;;;;;18.20;99.90;;;;;;5030096;28;20341;-79
2022/06/07 00:52:27;;;;;;;;;;;18.20;99.90;;;;;;5025306;28;19925;-79
2022/06/07 00:54:56;;;;;;;;;;;18.20;99.90;;;;;;5029213;28;19931;-79
2022/06/07 00:57:39;;;;;;;;;;;18.10;99.90;;;;;;5031163;28;19925;-79
2022/06/07 01:00:14;;;;;;;;;;;18.10;99.90;;;;;;5026644;28;19925;-79
2022/06/07 01:02:42;;;;;;;;;;;18.10;99.90;;;;;;5027173;28;19925;-79
2022/06/07 01:05:09;;;;;;;;;;;18.10;99.90;;;;;;5024042;28;19932;-79
2022/06/07 01:13:11;;;;;;;;;;;18.00;99.90;;;;;;5020661;28;20290;-79
2022/06/07 01:15:38;;;;;;;;;;;18.00;99.90;;;;;;5038862;28;20387;-79
2022/06/07 01:18:07;;;;;;;;;;;18.00;99.90;;;;;;5025379;28;19968;-79
2022/06/07 01:20:39;;;;;;;;;;;18.00;99.90;;;;;;5021667;28;19975;-79
2022/06/07 01:23:07;;;;;;;;;;;18.00;99.90;;;;;;5037865;28;20390;-79
2022/06/07 01:25:35;;;;;;;;;;;18.00;99.90;;;;;;5041062;28;20016;-79
2022/06/07 01:28:03;;;;;;;;;;;18.00;99.90;;;;;;5024899;28;19937;-79
2022/06/07 01:30:31;;;;;;;;;;;17.90;99.90;;;;;;5029553;28;19928;-79
2022/06/07 01:32:58;;;;;;;;;;;17.90;99.90;;;;;;5027825;28;19929;-79
2022/06/07 01:35:25;;;;;;;;;;;17.90;99.90;;;;;;5042700;28;19932;-79
2022/06/07 01:37:52;;;;;;;;;;;17.90;99.90;;;;;;5043198;28;19975;-79
2022/06/07 01:43:05;;;;;;;;;;;17.90;99.90;;;;;;5039267;28;19961;-79
2022/06/07 01:45:32;;;;;;;;;;;17.90;99.90;;;;;;5026565;28;20587;-79
2022/06/07 01:47:58;;;;;;;;;;;17.90;99.90;;;;;;5024584;28;19983;-79
2022/06/07 01:50:25;;;;;;;;;;;17.80;99.90;;;;;;5027054;28;19925;-79
2022/06/07 01:52:52;;;;;;;;;;;17.80;99.90;;;;;;5039987;28;19931;-79
2022/06/07 01:55:29;;;;;;;;;;;17.80;99.90;;;;;;5021337;28;20468;-79
2022/06/07 01:58:03;;;;;;;;;;;17.80;99.90;;;;;;5021944;28;19932;-79
2022/06/07 02:00:30;;;;;;;;;;;17.80;99.90;;;;;;5022905;28;20084;-79
2022/06/07 02:02:59;;;;;;;;;;;17.70;99.90;;;;;;5045156;28;19929;-79
2022/06/07 02:05:26;;;;;;;;;;;17.70;99.90;;;;;;5030203;28;19955;-79
2022/06/07 02:07:58;;;;;;;;;;;17.70;99.90;;;;;;5027419;28;19924;-79
2022/06/07 02:10:31;;;;;;;;;;;17.70;99.90;;;;;;5016126;28;20663;-79
2022/06/07 02:13:04;;;;;;;;;;;17.70;99.90;;;;;;5031074;28;20339;-79
2022/06/07 02:15:31;;;;;;;;;;;17.70;99.90;;;;;;5027076;28;19924;-79
2022/06/07 02:17:58;;;;;;;;;;;17.60;99.90;;;;;;5044738;28;19978;-79
2022/06/07 02:20:37;;;;;;;;;;;17.60;99.90;;;;;;5023191;28;20186;-79
2022/06/07 02:23:04;;;;;;;;;;;17.60;99.90;;;;;;5026191;28;19948;-79
2022/06/07 02:25:36;;;;;;;;;;;17.60;99.90;;;;;;5026886;28;19968;-79
2022/06/07 02:28:03;;;;;;;;;;;17.60;99.90;;;;;;5043136;28;19933;-79
2022/06/07 02:30:30;;;;;;;;;;;17.50;99.90;;;;;;5032008;28;19925;-79
2022/06/07 02:32:57;;;;;;;;;;;17.50;99.90;;;;;;5029316;28;19925;-79
2022/06/07 02:35:24;;;;;;;;;;;17.50;99.90;;;;;;5049586;28;20438;-79
2022/06/07 02:37:51;;;;;;;;;;;17.50;99.90;;;;;;5051075;28;20004;-79
2022/06/07 02:40:18;;;;;;;;;;;17.50;99.90;;;;;;5047078;28;19925;-79
2022/06/07 02:42:46;;;;;;;;;;;17.50;99.90;;;;;;5030067;28;19925;-79
2022/06/07 02:45:13;;;;;;;;;;;17.40;99.90;;;;;;5043130;28;19997;-79
2022/06/07 02:47:40;;;;;;;;;;;17.40;99.90;;;;;;5055109;28;19924;-79
2022/06/07 02:50:13;;;;;;;;;;;17.40;99.90;;;;;;5041823;28;19932;-79
2022/06/07 02:52:43;;;;;;;;;;;17.40;99.90;;;;;;5040836;28;20306;-79
2022/06/07 02:55:20;;;;;;;;;;;17.30;99.90;;;;;;5028290;28;20023;-79
2022/06/07 02:57:51;;;;;;;;;;;17.30;99.90;;;;;;5033966;28;19924;-79
2022/06/07 03:00:23;;;;;;;;;;;17.30;99.90;;;;;;5028928;28;19939;-79
2022/06/07 03:02:50;;;;;;;;;;;17.30;99.90;;;;;;5029195;28;20017;-79
2022/06/07 03:05:19;;;;;;;;;;;17.30;99.90;;;;;;5025718;28;19925;-79
2022/06/07 03:07:54;;;;;;;;;;;17.30;99.90;;;;;;5030380;28;20446;-79
2022/06/07 03:10:21;;;;;;;;;;;17.30;99.90;;;;;;5026565;28;19925;-79
2022/06/07 03:12:51;;;;;;;;;;;17.20;99.90;;;;;;5033717;28;20419;-79
2022/06/07 03:15:21;;;;;;;;;;;17.20;99.90;;;;;;5033894;28;19933;-79
2022/06/07 03:17:48;;;;;;;;;;;17.20;99.90;;;;;;5032399;28;19924;-79
2022/06/07 03:20:22;;;;;;;;;;;17.20;99.90;;;;;;5032152;28;19924;-79
2022/06/07 03:22:49;;;;;;;;;;;17.20;99.90;;;;;;5028756;28;19925;-79
2022/06/07 03:25:16;;;;;;;;;;;17.10;99.90;;;;;;5026051;28;19933;-79
2022/06/07 03:27:44;;;;;;;;;;;17.10;99.90;;;;;;5035403;28;20276;-79
2022/06/07 03:30:16;;;;;;;;;;;17.10;99.90;;;;;;5034412;28;19931;-79
2022/06/07 03:32:45;;;;;;;;;;;17.10;99.90;;;;;;5026419;28;19931;-79
2022/06/07 03:35:13;;;;;;;;;;;17.10;99.90;;;;;;5023473;28;19935;-79
2022/06/07 03:37:40;;;;;;;;;;;17.10;99.90;;;;;;5027994;28;19932;-79
2022/06/07 03:40:11;;;;;;;;;;;17.00;99.90;;;;;;5050667;28;19925;-79
2022/06/07 03:42:39;;;;;;;;;;;17.00;99.90;;;;;;5027960;28;19925;-79
2022/06/07 03:45:07;;;;;;;;;;;17.00;99.90;;;;;;5139580;22;20045;-76
2022/06/07 03:47:37;;;;;;;;;;;17.00;99.90;;;;;;5097345;28;19947;-77
2022/06/07 03:50:05;;;;;;;;;;;17.00;99.90;;;;;;5098479;28;20535;-77
2022/06/07 03:52:32;;;;;;;;;;;16.90;99.90;;;;;;5109492;22;19930;-78
2022/06/07 03:54:59;;;;;;;;;;;16.90;99.90;;;;;;5106935;22;19932;-78
2022/06/07 03:57:32;;;;;;;;;;;16.90;99.90;;;;;;5097255;28;20404;-78
2022/06/07 04:00:06;;;;;;;;;;;16.90;99.90;;;;;;5069288;28;19931;-78
2022/06/07 04:02:43;;;;;;;;;;;16.90;99.90;;;;;;5086887;28;19939;-78
2022/06/07 04:05:12;;;;;;;;;;;16.90;99.90;;;;;;5098445;28;20298;-78
2022/06/07 04:10:24;;;;;;;;;;;16.90;99.90;;;;;;5069009;28;19936;-78
2022/06/07 04:12:52;;;;;;;;;;;16.90;99.90;;;;;;5103175;28;20475;-78
2022/06/07 04:15:21;;;;;;;;;;;16.90;99.90;;;;;;5100075;28;19981;-78
2022/06/07 04:17:53;;;;;;;;;;;16.80;99.90;;;;;;5089435;28;20325;-78
2022/06/07 04:20:26;;;;;;;;;;;16.80;99.90;;;;;;5064797;28;19924;-78
2022/06/07 04:22:56;;;;;;;;;;;16.80;99.90;;;;;;5068891;28;19924;-78
2022/06/07 04:25:23;;;;;;;;;;;16.80;99.90;;;;;;5071321;28;20393;-78
2022/06/07 04:27:50;;;;;;;;;;;16.80;99.90;;;;;;5072443;28;19927;-79
2022/06/07 04:30:19;;;;;;;;;;;16.70;99.90;;;;;;5068918;28;19929;-79
2022/06/07 04:32:50;;;;;;;;;;;16.70;99.90;;;;;;5084487;28;19939;-79
2022/06/07 04:35:25;;;;;;;;;;;16.70;99.90;;;;;;5065135;28;20385;-78
2022/06/07 04:37:56;;;;;;;;;;;16.70;99.90;;;;;;5099209;28;19932;-78
2022/06/07 04:40:25;;;;;;;;;;;16.70;99.90;;;;;;5062397;28;19928;-79
2022/06/07 04:42:53;;;;;;;;;;;16.70;99.90;;;;;;5072314;28;19963;-78
2022/06/07 04:45:23;;;;;;;;;;;16.70;99.90;;;;;;5071735;28;19939;-78
2022/06/07 04:48:16;;;;;;;;;;;16.70;99.90;;;;;;5075545;28;19982;-78
2022/06/07 04:51:03;;;;;;;;;;;16.60;99.90;;;;;;5063541;28;20382;-78
2022/06/07 04:53:32;;;;;;;;;;;16.60;99.90;;;;;;5072278;28;19924;-78
2022/06/07 04:56:01;;;;;;;;;;;16.60;99.90;;;;;;5070487;28;19944;-78
2022/06/07 04:58:29;;;;;;;;;;;16.60;99.90;;;;;;5095375;28;19928;-78
2022/06/07 05:00:56;;;;;;;;;;;16.60;99.90;;;;;;5095866;28;19924;-79
2022/06/07 05:03:24;;;;;;;;;;;16.60;99.90;;;;;;5066861;28;20335;-79
2022/06/07 05:05:52;;;;;;;;;;;16.60;99.90;;;;;;5071147;28;19972;-78
2022/06/07 05:08:19;;;;;;;;;;;16.60;99.90;;;;;;5065655;28;19924;-79
2022/06/07 05:10:48;;;;;;;;;;;16.50;99.90;;;;;;5066379;28;19977;-78
2022/06/07 05:13:17;;;;;;;;;;;16.50;99.90;;;;;;5099160;28;20631;-78
2022/06/07 05:15:45;;;;;;;;;;;16.50;99.90;;;;;;5067690;28;19975;-79
2022/06/07 05:18:17;;;;;;;;;;;16.50;99.90;;;;;;5069709;28;19924;-78
2022/06/07 05:20:48;;;;;;;;;;;16.50;99.90;;;;;;5067030;28;20439;-78
2022/06/07 05:23:19;;;;;;;;;;;16.50;99.90;;;;;;5070241;28;20339;-78
2022/06/07 05:25:57;;;;;;;;;;;16.50;99.90;;;;;;5096850;28;20446;-78
2022/06/07 05:28:25;;;;;;;;;;;16.40;99.90;;;;;;5070672;28;19928;-78
2022/06/07 05:30:53;;;;;;;;;;;16.40;99.90;;;;;;5096321;28;19932;-79
2022/06/07 05:33:27;;;;;;;;;;;16.40;99.90;;;;;;5066283;28;20382;-79
2022/06/07 05:36:01;;;;;;;;;;;16.50;99.90;;;;;;5067856;28;20015;-79
2022/06/07 05:38:28;;;;;;;;;;;16.40;99.90;;;;;;5066113;28;19982;-78
2022/06/07 05:41:05;;;;;;;;;;;16.40;99.90;;;;;;5070237;28;19928;-78
2022/06/07 05:43:33;;;;;;;;;;;16.40;99.90;;;;;;5064670;28;19935;-78
2022/06/07 05:46:01;;;;;;;;;;;16.40;99.90;;;;;;5067302;28;20385;-78
2022/06/07 05:48:47;;;;;;;;;;;16.40;99.90;;;;;;5062490;28;20010;-78
2022/06/07 05:51:22;;;;;;;;;;;16.40;99.90;;;;;;5064102;28;19947;-78
2022/06/07 05:53:53;;;;;;;;;;;16.30;99.90;;;;;;5093088;28;19925;-78
2022/06/07 05:56:20;;;;;;;;;;;16.30;99.90;;;;;;5067418;28;20342;-79
2022/06/07 05:58:48;;;;;;;;;;;16.40;99.90;;;;;;5063993;28;20528;-78
2022/06/07 06:01:15;;;;;;;;;;;16.30;99.90;;;;;;5070439;28;20040;-78
2022/06/07 06:03:46;;;;;;;;;;;16.30;99.90;;;;;;5061620;28;19925;-78
2022/06/07 06:06:15;;;;;;;;;;;16.30;99.90;;;;;;5072428;28;20015;-78
2022/06/07 06:11:36;;;;;;;;;;;16.30;99.90;;;;;;5094068;28;19931;-78
2022/06/07 06:14:26;;;;;;;;;;;16.30;99.90;;;;;;5071507;28;19931;-78
2022/06/07 06:17:01;;;;;;;;;;;16.20;99.90;;;;;;5070843;28;19932;-78
2022/06/07 06:19:37;;;;;;;;;;;16.20;99.90;;;;;;5066349;28;19924;-78
2022/06/07 06:22:05;;;;;;;;;;;16.20;99.90;;;;;;5067845;28;19930;-78
2022/06/07 06:24:36;;;;;;;;;;;16.20;99.90;;;;;;5077925;28;19924;-78
2022/06/07 06:27:06;;;;;;;;;;;16.20;99.90;;;;;;5067608;28;19928;-77
2022/06/07 06:29:38;;;;;;;;;;;16.20;99.90;;;;;;5100518;28;20287;-78
2022/06/07 06:32:07;;;;;;;;;;;16.20;99.90;;;;;;5071239;28;19930;-78
2022/06/07 06:34:34;;;;;;;;;;;16.20;99.90;;;;;;5067683;28;19939;-78
2022/06/07 06:37:04;;;;;;;;;;;16.20;99.90;;;;;;5076292;28;19932;-78
2022/06/07 06:39:36;;;;;;;;;;;16.20;99.90;;;;;;5070652;28;19931;-78
2022/06/07 06:42:04;;;;;;;;;;;16.20;99.90;;;;;;5094327;28;19936;-78
2022/06/07 06:45:00;;;;;;;;;;;16.10;99.90;;;;;;5083347;28;19929;-78
2022/06/07 06:47:27;;;;;;;;;;;16.10;99.90;;;;;;5069131;28;19999;-78
2022/06/07 06:49:54;;;;;;;;;;;16.10;99.90;;;;;;5069524;28;20337;-78
2022/06/07 06:52:22;;;;;;;;;;;16.10;99.90;;;;;;5099200;28;19928;-78
2022/06/07 06:54:51;;;;;;;;;;;16.10;99.90;;;;;;5069867;28;20413;-78
2022/06/07 06:57:23;;;;;;;;;;;16.10;99.90;;;;;;5076251;28;19928;-78
2022/06/07 06:59:52;;;;;;;;;;;16.10;99.90;;;;;;5101364;28;19925;-78
2022/06/07 07:02:20;;;;;;;;;;;16.10;99.90;;;;;;5071237;28;19924;-78
2022/06/07 07:04:58;;;;;;;;;;;16.10;99.90;;;;;;5070898;28;20402;-78
2022/06/07 07:07:25;;;;;;;;;;;16.10;99.90;;;;;;5091847;28;19993;-78
2022/06/07 07:09:55;;;;;;;;;;;16.00;99.90;;;;;;5086955;28;19947;-78
2022/06/07 07:12:22;;;;;;;;;;;16.00;99.90;;;;;;5066286;28;20365;-78
2022/06/07 07:14:56;;;;;;;;;;;16.00;99.90;;;;;;5072270;28;19924;-79
2022/06/07 07:17:28;;;;;;;;;;;16.00;99.90;;;;;;5087575;28;19924;-78
2022/06/07 07:19:56;;;;;;;;;;;16.00;99.90;;;;;;5068842;28;19930;-78
2022/06/07 07:22:23;;;;;;;;;;;16.10;99.90;;;;;;5071015;28;19928;-78
2022/06/07 07:24:51;;;;;;;;;;;16.00;99.90;;;;;;5072891;28;19928;-78
2022/06/07 07:27:23;;;;;;;;;;;16.00;99.90;;;;;;5069071;28;19939;-78
2022/06/07 07:29:51;;;;;;;;;;;16.00;99.90;;;;;;5089274;28;20390;-78
2022/06/07 07:32:22;;;;;;;;;;;16.10;99.90;;;;;;5086051;28;20297;-78
2022/06/07 07:34:54;;;;;;;;;;;16.00;99.90;;;;;;5068747;28;20092;-78
2022/06/07 07:37:23;;;;;;;;;;;16.00;99.90;;;;;;5068667;28;19932;-78
2022/06/07 07:39:57;;;;;;;;;;;16.00;99.90;;;;;;5069398;28;19927;-78
2022/06/07 07:42:27;;;;;;;;;;;16.00;99.90;;;;;;5087940;28;19924;-78
2022/06/07 07:45:02;;;;;;;;;;;16.00;99.90;;;;;;5072478;28;19928;-78
2022/06/07 07:47:29;;;;;;;;;;;16.00;99.90;;;;;;5069894;28;19924;-78
2022/06/07 07:49:57;;;;;;;;;;;16.00;99.90;;;;;;5070030;28;20348;-78
2022/06/07 07:52:25;;;;;;;;;;;16.00;99.90;;;;;;5069906;28;19931;-78
2022/06/07 07:55:04;;;;;;;;;;;16.00;99.90;;;;;;5072502;28;19932;-78
2022/06/07 07:57:33;;;;;;;;;;;16.10;99.90;;;;;;5070882;28;20015;-78
2022/06/07 08:00:00;;;;;;;;;;;16.10;99.90;;;;;;5070792;28;20290;-78
2022/06/07 08:02:27;;;;;;;;;;;16.10;99.90;;;;;;5101587;28;19959;-79
2022/06/07 08:05:03;;;;;;;;;;;16.10;99.90;;;;;;5068845;28;20022;-78
2022/06/07 08:07:32;;;;;;;;;;;16.10;99.90;;;;;;5071642;28;19923;-79
2022/06/07 08:10:00;;;;;;;;;;;16.10;99.90;;;;;;5080257;28;20385;-78
2022/06/07 08:12:27;;;;;;;;;;;16.10;99.90;;;;;;5069639;28;19924;-78
2022/06/07 08:14:56;;;;;;;;;;;16.10;99.90;;;;;;5071579;28;19932;-78
2022/06/07 08:17:23;;;;;;;;;;;16.10;99.90;;;;;;5089064;28;19923;-78
2022/06/07 08:19:50;;;;;;;;;;;16.10;99.90;;;;;;5072035;28;19970;-77
2022/06/07 08:22:17;;;;;;;;;;;16.10;99.90;;;;;;5072212;28;19978;-77
2022/06/07 08:24:44;;;;;;;;;;;16.20;99.90;;;;;;5089096;28;19931;-77
2022/06/07 08:27:11;;;;;;;;;;;16.20;99.90;;;;;;5083028;28;19928;-77
2022/06/07 08:29:38;;;;;;;;;;;16.20;99.90;;;;;;5086627;28;19924;-77
2022/06/07 08:32:07;;;;;;;;;;;16.20;99.90;;;;;;5066001;28;19924;-77
2022/06/07 08:37:37;;;;;;;;;;;16.20;99.90;;;;;;5087460;28;20115;-78
2022/06/07 08:40:07;;;;;;;;;;;16.20;99.90;;;;;;5086979;28;19927;-78
2022/06/07 08:42:35;;;;;;;;;;;16.30;99.90;;;;;;5072243;28;19928;-78
2022/06/07 08:45:05;;;;;;;;;;;16.30;99.90;;;;;;5101697;28;20390;-79
2022/06/07 08:47:35;;;;;;;;;;;16.30;99.90;;;;;;5085088;28;19931;-78
2022/06/07 08:50:08;;;;;;;;;;;16.30;99.90;;;;;;5085858;28;19970;-78
2022/06/07 08:52:36;;;;;;;;;;;16.30;99.90;;;;;;5086726;28;20011;-78
2022/06/07 08:55:11;;;;;;;;;;;16.30;99.90;;;;;;5081391;28;20019;-78
2022/06/07 08:57:38;;;;;;;;;;;16.30;99.90;;;;;;5080974;28;20350;-78
2022/06/07 09:00:14;;;;;;;;;;;16.40;99.90;;;;;;5078526;28;20022;-78
2022/06/07 09:02:57;;;;;;;;;;;16.40;99.90;;;;;;5087857;28;19928;-78
2022/06/07 09:05:25;;;;;;;;;;;16.40;99.90;;;;;;5070268;28;20045;-78
2022/06/07 09:07:52;;;;;;;;;;;16.40;99.90;;;;;;5085725;28;19924;-78
2022/06/07 09:13:05;;;;;;;;;;;16.40;99.90;;;;;;5100850;28;20291;-78
2022/06/07 09:15:33;;;;;;;;;;;16.40;99.90;;;;;;5094222;28;20335;-78
2022/06/07 09:18:05;;;;;;;;;;;16.50;99.90;;;;;;5088792;28;20335;-78
2022/06/07 09:20:36;;;;;;;;;;;16.50;99.90;;;;;;5087078;28;19935;-78
2022/06/07 09:23:04;;;;;;;;;;;16.50;99.90;;;;;;5071225;28;19932;-78
2022/06/07 09:25:34;;;;;;;;;;;16.50;99.90;;;;;;5078468;28;20016;-78
2022/06/07 09:28:02;;;;;;;;;;;16.50;99.90;;;;;;5084810;28;19956;-78
2022/06/07 09:30:29;;;;;;;;;;;16.50;99.90;;;;;;5067969;28;19932;-77
2022/06/07 09:32:56;;;;;;;;;;;16.50;99.90;;;;;;5070216;28;19935;-78
2022/06/07 09:35:33;;;;;;;;;;;16.50;99.90;;;;;;5085014;28;19924;-78
2022/06/07 09:38:02;;;;;;;;;;;16.60;99.90;;;;;;5087932;28;20003;-78
2022/06/07 09:40:30;;;;;;;;;;;16.60;99.90;;;;;;5084952;28;20128;-78
2022/06/07 09:42:59;;;;;;;;;;;16.60;99.90;;;;;;5084356;28;19939;-78
2022/06/07 09:45:28;;;;;;;;;;;16.60;99.90;;;;;;5087990;28;19935;-78
2022/06/07 09:47:55;;;;;;;;;;;16.60;99.90;;;;;;5086091;28;19981;-78
2022/06/07 09:50:25;;;;;;;;;;;16.70;99.90;;;;;;5085745;28;19938;-78
2022/06/07 09:52:56;;;;;;;;;;;16.70;99.90;;;;;;5086145;28;20290;-79
2022/06/07 09:55:28;;;;;;;;;;;16.70;99.90;;;;;;5085741;28;19931;-79
2022/06/07 09:58:02;;;;;;;;;;;16.70;99.90;;;;;;5068150;28;19924;-78
2022/06/07 10:00:33;;;;;;;;;;;16.70;99.90;;;;;;5084699;28;19938;-77
2022/06/07 10:03:19;;;;;;;;;;;16.80;99.90;;;;;;5082991;28;19935;-79
2022/06/07 10:05:50;;;;;;;;;;;16.80;99.90;;;;;;5086339;28;19924;-78
2022/06/07 10:08:24;;;;;;;;;;;16.80;99.90;;;;;;5081291;28;19935;-79
2022/06/07 10:13:27;;;;;;;;;;;16.80;99.90;;;;;;5089724;22;19932;-78
2022/06/07 10:16:04;;;;;;;;;;;16.90;99.90;;;;;;5120019;22;19966;-80
2022/06/07 10:18:39;;;;;;;;;;;16.90;99.90;;;;;;5063316;28;20017;-81
2022/06/07 10:21:21;;;;;;;;;;;16.90;99.90;;;;;;5082340;28;19929;-81
2022/06/07 10:23:56;;;;;;;;;;;16.90;99.90;;;;;;5063072;28;19936;-81
2022/06/07 10:26:26;;;;;;;;;;;16.90;99.90;;;;;;5081311;28;19930;-78
2022/06/07 10:29:03;;;;;;;;;;;17.00;99.90;;;;;;5084278;28;19924;-78
2022/06/07 10:31:34;;;;;;;;;;;17.00;99.90;;;;;;5060448;28;20304;-78
2022/06/07 10:34:02;;;;;;;;;;;17.00;99.90;;;;;;5078611;28;19932;-79
2022/06/07 10:36:38;;;;;;;;;;;17.00;99.90;;;;;;5080324;28;19924;-79
2022/06/07 10:39:20;;;;;;;;;;;17.00;99.90;;;;;;5085864;28;19928;-78
2022/06/07 10:41:49;;;;;;;;;;;17.10;99.90;;;;;;5063631;28;19932;-78
2022/06/07 10:44:19;;;;;;;;;;;17.10;99.90;;;;;;5079679;28;19932;-78
2022/06/07 10:46:47;;;;;;;;;;;17.10;99.90;;;;;;5074704;28;19924;-79
2022/06/07 10:49:17;;;;;;;;;;;17.10;99.90;;;;;;5077444;28;19929;-79
2022/06/07 10:54:38;;;;;;;;;;;17.20;99.90;;;;;;5083098;28;19924;-78
2022/06/07 10:57:12;;;;;;;;;;;17.20;99.90;;;;;;5090990;28;19930;-78
2022/06/07 10:59:44;;;;;;;;;;;17.20;99.90;;;;;;5077271;28;20521;-78
2022/06/07 11:02:17;;;;;;;;;;;17.20;99.90;;;;;;5065355;28;19925;-78
2022/06/07 11:10:24;;;;;;;;;;;17.30;99.90;;;;;;5080247;28;19920;-79
2022/06/07 11:12:57;;;;;;;;;;;17.30;99.90;;;;;;5071366;28;19981;-78
2022/06/07 11:15:26;;;;;;;;;;;17.30;99.90;;;;;;5082179;28;19931;-78
2022/06/07 11:17:58;;;;;;;;;;;17.30;99.90;;;;;;5065290;28;19985;-79
2022/06/07 11:20:27;;;;;;;;;;;17.40;99.90;;;;;;5081549;28;19932;-78
2022/06/07 11:22:56;;;;;;;;;;;17.40;99.90;;;;;;5070068;28;19943;-78
2022/06/07 11:25:32;;;;;;;;;;;17.40;99.90;;;;;;5080626;28;19932;-78
2022/06/07 11:28:00;;;;;;;;;;;17.40;99.90;;;;;;5076909;28;19928;-79
2022/06/07 11:30:42;;;;;;;;;;;17.40;99.90;;;;;;5084810;28;20031;-78
2022/06/07 11:33:24;;;;;;;;;;;17.50;99.90;;;;;;5081184;28;20010;-78
2022/06/07 11:35:53;;;;;;;;;;;17.50;99.90;;;;;;5075249;28;20553;-78
2022/06/07 11:38:22;;;;;;;;;;;17.50;99.90;;;;;;5073223;28;20437;-79
2022/06/07 11:40:51;;;;;;;;;;;17.60;99.90;;;;;;5081894;28;19930;-78
2022/06/07 11:43:37;;;;;;;;;;;17.60;99.90;;;;;;5063997;28;20021;-79
2022/06/07 11:46:07;;;;;;;;;;;17.60;99.90;;;;;;5078681;28;19947;-79
2022/06/07 11:48:37;;;;;;;;;;;17.60;99.90;;;;;;5076844;28;19924;-79
2022/06/07 11:51:11;;;;;;;;;;;17.60;99.90;;;;;;5067651;28;20298;-79
2022/06/07 11:53:39;;;;;;;;;;;17.70;99.90;;;;;;5076590;28;19939;-78
2022/06/07 11:56:21;;;;;;;;;;;17.70;99.90;;;;;;5064264;28;19924;-78
2022/06/07 11:58:51;;;;;;;;;;;17.70;99.90;;;;;;5085038;28;19955;-79
2022/06/07 12:01:32;;;;;;;;;;;17.70;99.90;;;;;;5089153;28;19931;-79
2022/06/07 12:04:18;;;;;;;;;;;17.80;99.90;;;;;;5085503;28;20380;-79
2022/06/07 12:06:45;;;;;;;;;;;17.80;99.90;;;;;;5077892;28;20015;-78
2022/06/07 12:09:15;;;;;;;;;;;17.80;99.90;;;;;;5087637;28;19970;-79
2022/06/07 12:11:44;;;;;;;;;;;17.90;99.90;;;;;;5064677;28;19924;-79
2022/06/07 12:14:20;;;;;;;;;;;17.90;99.90;;;;;;5080911;28;19928;-79
2022/06/07 12:16:53;;;;;;;;;;;17.90;99.90;;;;;;5084189;28;19924;-78
2022/06/07 12:19:24;;;;;;;;;;;18.00;99.90;;;;;;5086984;28;19975;-79
2022/06/07 12:21:55;;;;;;;;;;;18.00;99.90;;;;;;5068366;28;19939;-79
2022/06/07 12:24:23;;;;;;;;;;;18.00;99.90;;;;;;5081795;28;20295;-79
2022/06/07 12:26:52;;;;;;;;;;;18.10;99.90;;;;;;5082985;28;19924;-78
2022/06/07 12:29:20;;;;;;;;;;;18.10;99.90;;;;;;5089911;28;20330;-79
2022/06/07 12:31:48;;;;;;;;;;;18.20;99.90;;;;;;5063873;28;20045;-78
2022/06/07 12:34:17;;;;;;;;;;;18.20;99.90;;;;;;5069917;28;20334;-79
2022/06/07 12:36:46;;;;;;;;;;;18.20;99.90;;;;;;5081843;28;20106;-78
2022/06/07 12:39:14;;;;;;;;;;;18.30;99.90;;;;;;5072963;28;20340;-79
2022/06/07 12:41:47;;;;;;;;;;;18.30;99.90;;;;;;5079376;28;19928;-78
2022/06/07 12:44:21;;;;;;;;;;;18.30;99.90;;;;;;5084284;28;19932;-78
2022/06/07 12:46:48;;;;;;;;;;;18.40;99.90;;;;;;5079492;28;19935;-79
2022/06/07 12:49:20;;;;;;;;;;;18.40;99.90;;;;;;5068336;28;20014;-79
2022/06/07 12:51:54;;;;;;;;;;;18.50;99.90;;;;;;5085798;28;20272;-79
2022/06/07 12:54:22;;;;;;;;;;;18.50;99.90;;;;;;5079990;28;19932;-79
2022/06/07 12:56:50;;;;;;;;;;;18.50;99.90;;;;;;5081089;28;19924;-79
2022/06/07 12:59:22;;;;;;;;;;;18.60;99.90;;;;;;5077744;28;19925;-78
2022/06/07 13:01:50;;;;;;;;;;;18.60;99.90;;;;;;5075423;28;19935;-79
2022/06/07 13:04:20;;;;;;;;;;;18.60;99.90;;;;;;5062929;28;19931;-78
2022/06/07 13:07:01;;;;;;;;;;;18.60;99.90;;;;;;5058719;28;19947;-79
2022/06/07 13:09:28;;;;;;;;;;;18.70;99.90;;;;;;5076870;28;20098;-79
2022/06/07 13:11:56;;;;;;;;;;;18.70;99.90;;;;;;5082776;28;19936;-79
2022/06/07 13:14:25;;;;;;;;;;;18.80;99.90;;;;;;5080484;28;19925;-79
2022/06/07 13:16:52;;;;;;;;;;;18.80;99.90;;;;;;5061120;28;19924;-79
2022/06/07 13:19:22;;;;;;;;;;;18.80;99.90;;;;;;5083492;28;20412;-78
2022/06/07 13:21:51;;;;;;;;;;;18.80;99.90;;;;;;5088379;28;20313;-79
2022/06/07 13:24:21;;;;;;;;;;;18.80;99.90;;;;;;5072783;28;19929;-79
2022/06/07 13:26:48;;;;;;;;;;;18.90;99.90;;;;;;5060381;28;19925;-79
2022/06/07 13:29:17;;;;;;;;;;;18.90;99.90;;;;;;5078682;28;19943;-79
2022/06/07 13:31:47;;;;;;;;;;;18.90;99.90;;;;;;5082848;28;20023;-79
2022/06/07 13:34:19;;;;;;;;;;;18.90;99.90;;;;;;5060381;28;19924;-79
2022/06/07 13:36:49;;;;;;;;;;;18.90;99.90;;;;;;5061179;28;20034;-79
2022/06/07 13:39:21;;;;;;;;;;;19.00;99.90;;;;;;5062708;28;19924;-79
2022/06/07 13:41:51;;;;;;;;;;;19.00;99.90;;;;;;5078221;28;20011;-79
2022/06/07 13:44:29;;;;;;;;;;;19.00;99.90;;;;;;5063783;28;19978;-78
2022/06/07 13:46:59;;;;;;;;;;;19.10;99.90;;;;;;5061157;28;19993;-79
2022/06/07 13:54:58;;;;;;;;;;;19.20;99.90;;;;;;5081129;28;20007;-79
2022/06/07 13:57:25;;;;;;;;;;;19.20;99.90;;;;;;5079949;28;19928;-79
2022/06/07 13:59:52;;;;;;;;;;;19.20;99.90;;;;;;5080886;28;19936;-79
2022/06/07 14:02:20;;;;;;;;;;;19.20;99.90;;;;;;5072043;28;19971;-79
2022/06/07 14:04:47;;;;;;;;;;;19.20;99.90;;;;;;5064200;28;19938;-79
2022/06/07 14:07:15;;;;;;;;;;;19.20;99.90;;;;;;5073913;28;19924;-79
2022/06/07 14:09:43;;;;;;;;;;;19.20;99.90;;;;;;5063596;28;19978;-79
2022/06/07 14:12:10;;;;;;;;;;;19.30;99.90;;;;;;5084481;28;19970;-79
2022/06/07 14:14:37;;;;;;;;;;;19.30;99.90;;;;;;5060284;28;20356;-79
2022/06/07 14:17:07;;;;;;;;;;;19.30;99.90;;;;;;5083506;28;19995;-79
2022/06/07 14:19:45;;;;;;;;;;;19.30;99.90;;;;;;5079184;28;19932;-79
2022/06/07 14:22:15;;;;;;;;;;;19.30;99.90;;;;;;5077909;28;19939;-79
2022/06/07 14:24:42;;;;;;;;;;;19.30;99.90;;;;;;5061962;28;19936;-79
2022/06/07 14:27:12;;;;;;;;;;;19.40;99.90;;;;;;5070513;28;20336;-79
2022/06/07 14:29:41;;;;;;;;;;;19.40;99.90;;;;;;5061810;28;19931;-79
2022/06/07 14:32:11;;;;;;;;;;;19.40;99.90;;;;;;5083220;28;19925;-80
2022/06/07 14:34:40;;;;;;;;;;;19.40;99.90;;;;;;5064548;28;19928;-79
2022/06/07 14:37:09;;;;;;;;;;;19.40;99.90;;;;;;5082865;28;19924;-80
2022/06/07 14:39:37;;;;;;;;;;;19.40;99.90;;;;;;5089303;28;19924;-79
2022/06/07 14:42:04;;;;;;;;;;;19.40;99.90;;;;;;5082008;28;19924;-79
2022/06/07 14:44:31;;;;;;;;;;;19.40;99.90;;;;;;5081129;28;19928;-79
2022/06/07 14:46:58;;;;;;;;;;;19.50;99.90;;;;;;5088121;28;19924;-79
2022/06/07 14:49:27;;;;;;;;;;;19.50;99.90;;;;;;5088482;28;19924;-79
2022/06/07 14:51:56;;;;;;;;;;;19.50;99.90;;;;;;5058202;28;19928;-79
2022/06/07 14:54:24;;;;;;;;;;;19.50;99.90;;;;;;5089205;28;20022;-79
2022/06/07 14:56:51;;;;;;;;;;;19.50;99.90;;;;;;5085533;28;19928;-79
2022/06/07 14:59:18;;;;;;;;;;;19.50;99.90;;;;;;5086522;28;19925;-79
2022/06/07 15:01:46;;;;;;;;;;;19.50;99.90;;;;;;5089456;28;19972;-79
2022/06/07 15:04:16;;;;;;;;;;;19.50;99.90;;;;;;5084315;28;20113;-79
2022/06/07 15:06:43;;;;;;;;;;;19.50;99.90;;;;;;5072319;28;19939;-79
2022/06/07 15:09:13;;;;;;;;;;;19.50;99.90;;;;;;5079070;28;19924;-79